sensor_id;sensor_type;location;lat;lon;timestamp;temperature;humidity
8684;DHT22;4379;59.744;18.206;2023-02-01T00:01:09;-6.20;99.90
8684;DHT22;4379;59.744;18.206;2023-02-01T00:03:37;-6.20;99.90
8684;DHT22;4379;59.744;18.206;2023-02-01T00:06:04;-6.20;99.90
8684;DHT22;4379;59.744;18.206;2023-02-01T00:08:32;-6.20;99.90
8684;DHT22;4379;59.744;18.206;2023-02-01T00:11:08;-6.20;99.90
8684;DHT22;4379;59.744;18.206;2023-02-01T00:13:38;-6.10;99.90
8684;DHT22;4379;59.744;18.206;2023-02-01T00:16:10;-6.20;99.90
8684;DHT22;4379;59.744;18.206;2023-02-01T00:18:39;-6.10;99.90
8684;DHT22;4379;59.744;18.206;2023-02-01T00:21:07;-6.30;99.90
8684;DHT22;4379;59.744;18.206;2023-02-01T00:23:35;-6.30;99.90
8684;DHT22;4379;59.744;18.206;2023-02-01T00:26:04;-6.30;99.90
8684;DHT22;4379;59.744;18.206;2023-02-01T00:28:33;-6.20;99.90
8684;DHT22;4379;59.744;18.206;2023-02-01T00:31:02;-6.30;99.90
8684;DHT22;4379;59.744;18.206;2023-02-01T00:33:32;-6.40;99.90
8684;DHT22;4379;59.744;18.206;2023-02-01T00:36:01;-6.40;99.90
8684;DHT22;4379;59.744;18.206;2023-02-01T00:38:30;-6.50;99.90
8684;DHT22;4379;59.744;18.206;2023-02-01T00:43:35;-6.40;99.90
8684;DHT22;4379;59.744;18.206;2023-02-01T00:46:03;-6.40;99.90
8684;DHT22;4379;59.744;18.206;2023-02-01T00:48:31;-6.30;99.90
8684;DHT22;4379;59.744;18.206;2023-02-01T00:51:06;-6.30;99.90
8684;DHT22;4379;59.744;18.206;2023-02-01T00:53:34;-6.30;99.90
8684;DHT22;4379;59.744;18.206;2023-02-01T00:56:03;-6.20;99.90
8684;DHT22;4379;59.744;18.206;2023-02-01T00:58:31;-6.10;99.90
8684;DHT22;4379;59.744;18.206;2023-02-01T01:01:09;-6.00;99.90
8684;DHT22;4379;59.744;18.206;2023-02-01T01:03:46;-5.90;99.90
8684;DHT22;4379;59.744;18.206;2023-02-01T01:06:21;-5.80;99.90
8684;DHT22;4379;59.744;18.206;2023-02-01T01:08:51;-5.80;99.90
8684;DHT22;4379;59.744;18.206;2023-02-01T01:11:23;-5.70;99.90
8684;DHT22;4379;59.744;18.206;2023-02-01T01:13:52;-5.60;99.90
8684;DHT22;4379;59.744;18.206;2023-02-01T01:16:21;-5.50;99.90
8684;DHT22;4379;59.744;18.206;2023-02-01T01:18:50;-5.40;99.90
8684;DHT22;4379;59.744;18.206;2023-02-01T01:21:18;-5.50;99.90
8684;DHT22;4379;59.744;18.206;2023-02-01T01:23:46;-5.40;99.90
8684;DHT22;4379;59.744;18.206;2023-02-01T01:26:26;-5.40;99.90
8684;DHT22;4379;59.744;18.206;2023-02-01T01:28:55;-5.30;99.90
8684;DHT22;4379;59.744;18.206;2023-02-01T01:31:23;-5.30;99.90
8684;DHT22;4379;59.744;18.206;2023-02-01T01:33:53;-5.30;99.90
8684;DHT22;4379;59.744;18.206;2023-02-01T01:36:21;-5.20;99.90
8684;DHT22;4379;59.744;18.206;2023-02-01T01:38:49;-5.10;99.90
8684;DHT22;4379;59.744;18.206;2023-02-01T01:41:20;-5.00;99.90
8684;DHT22;4379;59.744;18.206;2023-02-01T01:43:54;-5.00;99.90
8684;DHT22;4379;59.744;18.206;2023-02-01T01:49:09;-5.00;99.90
8684;DHT22;4379;59.744;18.206;2023-02-01T01:51:49;-5.00;99.90
8684;DHT22;4379;59.744;18.206;2023-02-01T01:54:41;-5.00;99.90
8684;DHT22;4379;59.744;18.206;2023-02-01T01:57:44;-5.00;99.90
8684;DHT22;4379;59.744;18.206;2023-02-01T02:00:16;-4.90;99.90
8684;DHT22;4379;59.744;18.206;2023-02-01T02:02:53;-4.80;99.90
8684;DHT22;4379;59.744;18.206;2023-02-01T02:05:21;-4.80;99.90
8684;DHT22;4379;59.744;18.206;2023-02-01T02:07:51;-4.70;99.90
8684;DHT22;4379;59.744;18.206;2023-02-01T02:10:19;-4.70;99.90
8684;DHT22;4379;59.744;18.206;2023-02-01T02:12:48;-4.80;99.90
8684;DHT22;4379;59.744;18.206;2023-02-01T02:15:17;-4.80;99.90
8684;DHT22;4379;59.744;18.206;2023-02-01T02:20:51;-4.80;99.90
8684;DHT22;4379;59.744;18.206;2023-02-01T02:23:45;-4.80;99.90
8684;DHT22;4379;59.744;18.206;2023-02-01T02:31:51;-4.80;99.90
8684;DHT22;4379;59.744;18.206;2023-02-01T02:37:16;-4.80;99.90
8684;DHT22;4379;59.744;18.206;2023-02-01T02:48:55;-4.70;99.90
8684;DHT22;4379;59.744;18.206;2023-02-01T02:51:37;-4.70;99.90
8684;DHT22;4379;59.744;18.206;2023-02-01T02:54:29;-4.50;99.90
8684;DHT22;4379;59.744;18.206;2023-02-01T02:57:24;-4.50;99.90
8684;DHT22;4379;59.744;18.206;2023-02-01T03:00:15;-4.50;99.90
8684;DHT22;4379;59.744;18.206;2023-02-01T03:03:02;-4.50;99.90
8684;DHT22;4379;59.744;18.206;2023-02-01T03:05:49;-4.40;99.90
8684;DHT22;4379;59.744;18.206;2023-02-01T03:08:22;-4.40;99.90
8684;DHT22;4379;59.744;18.206;2023-02-01T03:19:15;-4.20;99.90
8684;DHT22;4379;59.744;18.206;2023-02-01T03:21:51;-4.10;99.90
8684;DHT22;4379;59.744;18.206;2023-02-01T03:24:47;-4.00;99.90
8684;DHT22;4379;59.744;18.206;2023-02-01T03:27:22;-4.10;99.90
8684;DHT22;4379;59.744;18.206;2023-02-01T03:30:08;-4.20;99.90
8684;DHT22;4379;59.744;18.206;2023-02-01T03:32:38;-4.20;99.90
8684;DHT22;4379;59.744;18.206;2023-02-01T03:41:18;-4.20;99.90
8684;DHT22;4379;59.744;18.206;2023-02-01T03:43:53;-4.10;99.90
8684;DHT22;4379;59.744;18.206;2023-02-01T03:46:35;-4.00;99.90
8684;DHT22;4379;59.744;18.206;2023-02-01T03:49:08;-3.90;99.90
8684;DHT22;4379;59.744;18.206;2023-02-01T03:51:38;-3.80;99.90
8684;DHT22;4379;59.744;18.206;2023-02-01T03:54:08;-3.80;99.90
8684;DHT22;4379;59.744;18.206;2023-02-01T03:56:40;-3.80;99.90
8684;DHT22;4379;59.744;18.206;2023-02-01T03:59:12;-3.90;99.90
8684;DHT22;4379;59.744;18.206;2023-02-01T04:01:40;-3.90;99.90
8684;DHT22;4379;59.744;18.206;2023-02-01T04:04:09;-3.80;99.90
8684;DHT22;4379;59.744;18.206;2023-02-01T04:06:37;-3.70;99.90
8684;DHT22;4379;59.744;18.206;2023-02-01T04:09:04;-3.60;99.90
8684;DHT22;4379;59.744;18.206;2023-02-01T04:11:31;-3.60;99.90
8684;DHT22;4379;59.744;18.206;2023-02-01T04:13:59;-3.60;99.90
8684;DHT22;4379;59.744;18.206;2023-02-01T04:16:32;-3.50;99.90
8684;DHT22;4379;59.744;18.206;2023-02-01T04:19:00;-3.60;99.90
8684;DHT22;4379;59.744;18.206;2023-02-01T04:21:28;-3.70;99.90
8684;DHT22;4379;59.744;18.206;2023-02-01T04:23:55;-3.60;99.90
8684;DHT22;4379;59.744;18.206;2023-02-01T04:26:22;-3.60;99.90
8684;DHT22;4379;59.744;18.206;2023-02-01T04:28:50;-3.70;99.90
8684;DHT22;4379;59.744;18.206;2023-02-01T04:31:20;-3.80;99.90
8684;DHT22;4379;59.744;18.206;2023-02-01T04:33:53;-3.60;99.90
8684;DHT22;4379;59.744;18.206;2023-02-01T04:36:21;-3.60;99.90
8684;DHT22;4379;59.744;18.206;2023-02-01T04:38:50;-3.50;99.90
8684;DHT22;4379;59.744;18.206;2023-02-01T04:41:18;-3.50;99.90
8684;DHT22;4379;59.744;18.206;2023-02-01T04:43:50;-3.40;99.90
8684;DHT22;4379;59.744;18.206;2023-02-01T04:46:19;-3.40;99.90
8684;DHT22;4379;59.744;18.206;2023-02-01T04:48:47;-3.50;99.90
8684;DHT22;4379;59.744;18.206;2023-02-01T04:51:14;-3.50;99.90
8684;DHT22;4379;59.744;18.206;2023-02-01T04:53:42;-3.50;99.90
8684;DHT22;4379;59.744;18.206;2023-02-01T04:56:09;-3.50;99.90
8684;DHT22;4379;59.744;18.206;2023-02-01T04:58:37;-3.50;99.90
8684;DHT22;4379;59.744;18.206;2023-02-01T05:01:06;-3.50;99.90
8684;DHT22;4379;59.744;18.206;2023-02-01T05:03:34;-3.30;99.90
8684;DHT22;4379;59.744;18.206;2023-02-01T05:06:02;-3.30;99.90
8684;DHT22;4379;59.744;18.206;2023-02-01T05:08:32;-3.20;99.90
8684;DHT22;4379;59.744;18.206;2023-02-01T05:10:59;-3.20;99.90
8684;DHT22;4379;59.744;18.206;2023-02-01T05:13:30;-3.30;99.90
8684;DHT22;4379;59.744;18.206;2023-02-01T05:16:16;-3.20;99.90
8684;DHT22;4379;59.744;18.206;2023-02-01T05:18:44;-3.10;99.90
8684;DHT22;4379;59.744;18.206;2023-02-01T05:21:12;-3.00;99.90
8684;DHT22;4379;59.744;18.206;2023-02-01T05:23:40;-2.90;99.90
8684;DHT22;4379;59.744;18.206;2023-02-01T05:26:31;-2.90;99.90
8684;DHT22;4379;59.744;18.206;2023-02-01T05:28:59;-2.90;99.90
8684;DHT22;4379;59.744;18.206;2023-02-01T05:31:26;-3.00;99.90
8684;DHT22;4379;59.744;18.206;2023-02-01T05:33:54;-3.00;99.90
8684;DHT22;4379;59.744;18.206;2023-02-01T05:36:22;-3.20;99.90
8684;DHT22;4379;59.744;18.206;2023-02-01T05:38:50;-3.20;99.90
8684;DHT22;4379;59.744;18.206;2023-02-01T05:41:17;-3.20;99.90
8684;DHT22;4379;59.744;18.206;2023-02-01T05:43:44;-3.20;99.90
8684;DHT22;4379;59.744;18.206;2023-02-01T05:46:12;-3.00;99.90
8684;DHT22;4379;59.744;18.206;2023-02-01T05:48:41;-2.90;99.90
8684;DHT22;4379;59.744;18.206;2023-02-01T05:51:09;-2.70;99.90
8684;DHT22;4379;59.744;18.206;2023-02-01T05:53:37;-2.70;99.90
8684;DHT22;4379;59.744;18.206;2023-02-01T05:56:05;-2.70;99.90
8684;DHT22;4379;59.744;18.206;2023-02-01T05:58:32;-2.60;99.90
8684;DHT22;4379;59.744;18.206;2023-02-01T06:01:01;-2.70;99.90
8684;DHT22;4379;59.744;18.206;2023-02-01T06:03:29;-2.70;99.90
8684;DHT22;4379;59.744;18.206;2023-02-01T06:05:56;-2.70;99.90
8684;DHT22;4379;59.744;18.206;2023-02-01T06:08:24;-2.60;99.90
8684;DHT22;4379;59.744;18.206;2023-02-01T06:11:04;-2.70;99.90
8684;DHT22;4379;59.744;18.206;2023-02-01T06:13:33;-2.70;99.90
8684;DHT22;4379;59.744;18.206;2023-02-01T06:16:02;-2.60;99.90
8684;DHT22;4379;59.744;18.206;2023-02-01T06:18:30;-2.60;99.90
8684;DHT22;4379;59.744;18.206;2023-02-01T06:20:59;-2.60;99.90
8684;DHT22;4379;59.744;18.206;2023-02-01T06:23:30;-2.80;99.90
8684;DHT22;4379;59.744;18.206;2023-02-01T06:26:01;-2.80;99.90
8684;DHT22;4379;59.744;18.206;2023-02-01T06:28:30;-2.80;99.90
8684;DHT22;4379;59.744;18.206;2023-02-01T06:30:58;-2.90;99.90
8684;DHT22;4379;59.744;18.206;2023-02-01T06:33:29;-2.80;99.90
8684;DHT22;4379;59.744;18.206;2023-02-01T06:35:58;-3.00;99.90
8684;DHT22;4379;59.744;18.206;2023-02-01T06:38:26;-2.90;99.90
8684;DHT22;4379;59.744;18.206;2023-02-01T06:40:55;-3.00;99.90
8684;DHT22;4379;59.744;18.206;2023-02-01T06:43:25;-2.80;99.90
8684;DHT22;4379;59.744;18.206;2023-02-01T06:45:53;-2.70;99.90
8684;DHT22;4379;59.744;18.206;2023-02-01T06:48:21;-2.60;99.90
8684;DHT22;4379;59.744;18.206;2023-02-01T06:50:48;-2.50;99.90
8684;DHT22;4379;59.744;18.206;2023-02-01T06:53:16;-2.50;99.90
8684;DHT22;4379;59.744;18.206;2023-02-01T06:55:52;-2.60;99.90
8684;DHT22;4379;59.744;18.206;2023-02-01T06:58:20;-2.50;99.90
8684;DHT22;4379;59.744;18.206;2023-02-01T07:00:47;-2.60;99.90
8684;DHT22;4379;59.744;18.206;2023-02-01T07:03:15;-2.70;99.90
8684;DHT22;4379;59.744;18.206;2023-02-01T07:05:43;-2.80;99.90
8684;DHT22;4379;59.744;18.206;2023-02-01T07:08:10;-2.90;99.90
8684;DHT22;4379;59.744;18.206;2023-02-01T07:10:38;-2.90;99.90
8684;DHT22;4379;59.744;18.206;2023-02-01T07:13:05;-2.90;99.90
8684;DHT22;4379;59.744;18.206;2023-02-01T07:15:35;-3.00;99.90
8684;DHT22;4379;59.744;18.206;2023-02-01T07:18:03;-3.00;99.90
8684;DHT22;4379;59.744;18.206;2023-02-01T07:20:30;-3.00;99.90
8684;DHT22;4379;59.744;18.206;2023-02-01T07:22:58;-3.10;99.90
8684;DHT22;4379;59.744;18.206;2023-02-01T07:25:25;-3.00;99.90
8684;DHT22;4379;59.744;18.206;2023-02-01T07:27:53;-2.80;99.90
8684;DHT22;4379;59.744;18.206;2023-02-01T07:30:20;-2.90;99.90
8684;DHT22;4379;59.744;18.206;2023-02-01T07:32:48;-2.80;99.90
8684;DHT22;4379;59.744;18.206;2023-02-01T07:35:16;-2.80;99.90
8684;DHT22;4379;59.744;18.206;2023-02-01T07:37:43;-2.90;99.90
8684;DHT22;4379;59.744;18.206;2023-02-01T07:40:13;-2.90;99.90
8684;DHT22;4379;59.744;18.206;2023-02-01T07:42:41;-2.90;99.90
8684;DHT22;4379;59.744;18.206;2023-02-01T07:45:08;-2.90;99.90
8684;DHT22;4379;59.744;18.206;2023-02-01T07:47:47;-2.70;99.90
8684;DHT22;4379;59.744;18.206;2023-02-01T07:50:15;-2.80;99.90
8684;DHT22;4379;59.744;18.206;2023-02-01T07:52:43;-2.70;99.90
8684;DHT22;4379;59.744;18.206;2023-02-01T07:55:10;-2.70;99.90
8684;DHT22;4379;59.744;18.206;2023-02-01T07:57:38;-2.60;99.90
8684;DHT22;4379;59.744;18.206;2023-02-01T08:00:06;-2.50;99.90
8684;DHT22;4379;59.744;18.206;2023-02-01T08:02:51;-2.50;99.90
8684;DHT22;4379;59.744;18.206;2023-02-01T08:05:19;-2.40;99.90
8684;DHT22;4379;59.744;18.206;2023-02-01T08:07:50;-2.20;99.90
8684;DHT22;4379;59.744;18.206;2023-02-01T08:10:18;-2.20;99.90
8684;DHT22;4379;59.744;18.206;2023-02-01T08:12:46;-2.20;99.90
8684;DHT22;4379;59.744;18.206;2023-02-01T08:15:15;-2.30;99.90
8684;DHT22;4379;59.744;18.206;2023-02-01T08:17:50;-2.30;99.90
8684;DHT22;4379;59.744;18.206;2023-02-01T08:20:18;-2.10;99.90
8684;DHT22;4379;59.744;18.206;2023-02-01T08:22:46;-2.00;99.90
8684;DHT22;4379;59.744;18.206;2023-02-01T08:25:13;-1.90;99.90
8684;DHT22;4379;59.744;18.206;2023-02-01T08:27:41;-1.90;99.90
8684;DHT22;4379;59.744;18.206;2023-02-01T08:30:09;-2.00;99.90
8684;DHT22;4379;59.744;18.206;2023-02-01T08:32:37;-2.00;99.90
8684;DHT22;4379;59.744;18.206;2023-02-01T08:35:05;-1.80;99.90
8684;DHT22;4379;59.744;18.206;2023-02-01T08:37:33;-1.60;99.90
8684;DHT22;4379;59.744;18.206;2023-02-01T08:40:00;-1.40;99.90
8684;DHT22;4379;59.744;18.206;2023-02-01T08:42:28;-1.50;99.90
8684;DHT22;4379;59.744;18.206;2023-02-01T08:45:14;-1.50;99.90
8684;DHT22;4379;59.744;18.206;2023-02-01T08:47:42;-1.60;99.90
8684;DHT22;4379;59.744;18.206;2023-02-01T08:50:10;-1.70;99.90
8684;DHT22;4379;59.744;18.206;2023-02-01T08:52:37;-1.70;99.90
8684;DHT22;4379;59.744;18.206;2023-02-01T08:55:06;-1.80;99.90
8684;DHT22;4379;59.744;18.206;2023-02-01T08:57:34;-1.70;99.90
8684;DHT22;4379;59.744;18.206;2023-02-01T09:00:04;-1.60;99.90
8684;DHT22;4379;59.744;18.206;2023-02-01T09:02:32;-1.40;99.90
8684;DHT22;4379;59.744;18.206;2023-02-01T09:04:59;-1.30;99.90
8684;DHT22;4379;59.744;18.206;2023-02-01T09:07:27;-1.30;99.90
8684;DHT22;4379;59.744;18.206;2023-02-01T09:09:55;-1.20;99.90
8684;DHT22;4379;59.744;18.206;2023-02-01T09:12:23;-1.30;99.90
8684;DHT22;4379;59.744;18.206;2023-02-01T09:14:51;-1.30;99.90
8684;DHT22;4379;59.744;18.206;2023-02-01T09:17:18;-1.10;99.90
8684;DHT22;4379;59.744;18.206;2023-02-01T09:19:45;-1.10;99.90
8684;DHT22;4379;59.744;18.206;2023-02-01T09:22:15;-1.10;99.90
8684;DHT22;4379;59.744;18.206;2023-02-01T09:24:43;-1.10;99.90
8684;DHT22;4379;59.744;18.206;2023-02-01T09:27:11;-0.90;99.90
8684;DHT22;4379;59.744;18.206;2023-02-01T09:29:38;-0.70;99.90
8684;DHT22;4379;59.744;18.206;2023-02-01T09:32:06;-0.60;99.90
8684;DHT22;4379;59.744;18.206;2023-02-01T09:34:35;-0.50;99.90
8684;DHT22;4379;59.744;18.206;2023-02-01T09:37:02;-0.50;99.90
8684;DHT22;4379;59.744;18.206;2023-02-01T09:39:30;-0.40;99.90
8684;DHT22;4379;59.744;18.206;2023-02-01T09:42:14;-0.60;99.90
8684;DHT22;4379;59.744;18.206;2023-02-01T09:45:06;-0.70;99.90
8684;DHT22;4379;59.744;18.206;2023-02-01T09:47:41;-1.00;99.90
8684;DHT22;4379;59.744;18.206;2023-02-01T09:50:14;-1.00;99.90
8684;DHT22;4379;59.744;18.206;2023-02-01T09:53:01;-1.00;99.90
8684;DHT22;4379;59.744;18.206;2023-02-01T09:55:50;-1.10;99.90
8684;DHT22;4379;59.744;18.206;2023-02-01T09:58:35;-1.10;99.90
8684;DHT22;4379;59.744;18.206;2023-02-01T10:01:09;-0.90;99.90
8684;DHT22;4379;59.744;18.206;2023-02-01T10:03:39;-0.80;99.90
8684;DHT22;4379;59.744;18.206;2023-02-01T10:11:43;-1.00;99.90
8684;DHT22;4379;59.744;18.206;2023-02-01T10:26:19;-0.40;99.90
8684;DHT22;4379;59.744;18.206;2023-02-01T10:29:00;-0.30;99.90
8684;DHT22;4379;59.744;18.206;2023-02-01T10:31:35;-0.40;99.90
8684;DHT22;4379;59.744;18.206;2023-02-01T10:34:21;-0.60;99.90
8684;DHT22;4379;59.744;18.206;2023-02-01T10:39:58;-0.60;99.90
8684;DHT22;4379;59.744;18.206;2023-02-01T10:42:28;-0.60;99.90
8684;DHT22;4379;59.744;18.206;2023-02-01T10:45:01;-0.50;99.90
8684;DHT22;4379;59.744;18.206;2023-02-01T10:47:29;-0.60;99.90
8684;DHT22;4379;59.744;18.206;2023-02-01T10:53:03;-0.80;99.90
8684;DHT22;4379;59.744;18.206;2023-02-01T10:55:40;-0.80;99.90
8684;DHT22;4379;59.744;18.206;2023-02-01T10:58:16;-0.70;99.90
8684;DHT22;4379;59.744;18.206;2023-02-01T11:00:58;-0.60;99.90
8684;DHT22;4379;59.744;18.206;2023-02-01T11:05:58;-0.50;99.90
8684;DHT22;4379;59.744;18.206;2023-02-01T11:08:26;-0.40;99.90
8684;DHT22;4379;59.744;18.206;2023-02-01T11:11:03;-0.30;99.90
8684;DHT22;4379;59.744;18.206;2023-02-01T11:13:37;-0.50;99.90
8684;DHT22;4379;59.744;18.206;2023-02-01T11:16:06;-0.50;99.90
8684;DHT22;4379;59.744;18.206;2023-02-01T11:18:37;-0.70;99.90
8684;DHT22;4379;59.744;18.206;2023-02-01T11:21:09;-0.70;99.90
8684;DHT22;4379;59.744;18.206;2023-02-01T11:23:43;-0.60;99.90
8684;DHT22;4379;59.744;18.206;2023-02-01T11:26:22;-0.50;99.90
8684;DHT22;4379;59.744;18.206;2023-02-01T11:29:04;-0.20;99.90
8684;DHT22;4379;59.744;18.206;2023-02-01T11:31:35;-0.10;99.90
8684;DHT22;4379;59.744;18.206;2023-02-01T11:34:14;0.10;99.90
8684;DHT22;4379;59.744;18.206;2023-02-01T11:36:45;0.20;99.90
8684;DHT22;4379;59.744;18.206;2023-02-01T11:44:32;0.10;99.90
8684;DHT22;4379;59.744;18.206;2023-02-01T11:49:52;0.00;99.90
8684;DHT22;4379;59.744;18.206;2023-02-01T11:52:43;-0.40;99.90
8684;DHT22;4379;59.744;18.206;2023-02-01T11:55:17;0.00;99.90
8684;DHT22;4379;59.744;18.206;2023-02-01T12:08:55;0.00;99.90
8684;DHT22;4379;59.744;18.206;2023-02-01T12:19:56;0.10;99.90
8684;DHT22;4379;59.744;18.206;2023-02-01T12:23:01;0.10;99.90
8684;DHT22;4379;59.744;18.206;2023-02-01T12:28:49;0.00;99.90
8684;DHT22;4379;59.744;18.206;2023-02-01T12:39:57;0.30;99.90
8684;DHT22;4379;59.744;18.206;2023-02-01T12:42:36;0.20;99.90
8684;DHT22;4379;59.744;18.206;2023-02-01T12:45:13;0.20;99.90
8684;DHT22;4379;59.744;18.206;2023-02-01T12:47:49;0.20;99.90
8684;DHT22;4379;59.744;18.206;2023-02-01T12:50:22;0.20;99.90
8684;DHT22;4379;59.744;18.206;2023-02-01T12:52:55;0.20;99.90
8684;DHT22;4379;59.744;18.206;2023-02-01T12:55:36;0.20;99.90
8684;DHT22;4379;59.744;18.206;2023-02-01T13:00:44;0.00;99.90
8684;DHT22;4379;59.744;18.206;2023-02-01T13:03:34;0.10;99.90
8684;DHT22;4379;59.744;18.206;2023-02-01T13:06:23;0.10;99.90
8684;DHT22;4379;59.744;18.206;2023-02-01T13:11:45;-0.20;99.90
8684;DHT22;4379;59.744;18.206;2023-02-01T13:14:32;0.00;99.90
8684;DHT22;4379;59.744;18.206;2023-02-01T13:17:31;0.00;99.90
8684;DHT22;4379;59.744;18.206;2023-02-01T13:22:52;0.10;99.90
8684;DHT22;4379;59.744;18.206;2023-02-01T13:25:37;0.10;99.90
8684;DHT22;4379;59.744;18.206;2023-02-01T13:34:25;0.30;99.90
8684;DHT22;4379;59.744;18.206;2023-02-01T13:40:07;0.10;99.90
8684;DHT22;4379;59.744;18.206;2023-02-01T13:43:01;0.10;99.90
8684;DHT22;4379;59.744;18.206;2023-02-01T13:45:32;-0.10;99.90
8684;DHT22;4379;59.744;18.206;2023-02-01T13:48:04;-0.20;99.90
8684;DHT22;4379;59.744;18.206;2023-02-01T13:50:38;-0.30;99.90
8684;DHT22;4379;59.744;18.206;2023-02-01T13:55:40;-0.10;99.90
8684;DHT22;4379;59.744;18.206;2023-02-01T14:00:38;-0.20;99.90
8684;DHT22;4379;59.744;18.206;2023-02-01T14:05:54;-0.10;99.90
8684;DHT22;4379;59.744;18.206;2023-02-01T14:08:40;-0.10;99.90
8684;DHT22;4379;59.744;18.206;2023-02-01T14:11:48;0.00;99.90
8684;DHT22;4379;59.744;18.206;2023-02-01T14:19:22;-0.30;99.90
8684;DHT22;4379;59.744;18.206;2023-02-01T14:21:55;-0.40;99.90
8684;DHT22;4379;59.744;18.206;2023-02-01T14:24:32;-0.30;99.90
8684;DHT22;4379;59.744;18.206;2023-02-01T14:29:57;-0.20;99.90
8684;DHT22;4379;59.744;18.206;2023-02-01T14:32:46;-0.10;99.90
8684;DHT22;4379;59.744;18.206;2023-02-01T14:35:32;0.00;99.90
8684;DHT22;4379;59.744;18.206;2023-02-01T14:38:00;0.00;99.90
8684;DHT22;4379;59.744;18.206;2023-02-01T14:40:31;0.10;99.90
8684;DHT22;4379;59.744;18.206;2023-02-01T14:43:01;0.10;99.90
8684;DHT22;4379;59.744;18.206;2023-02-01T14:55:47;0.00;99.90
8684;DHT22;4379;59.744;18.206;2023-02-01T15:07:11;-0.10;99.90
8684;DHT22;4379;59.744;18.206;2023-02-01T15:12:03;-0.10;99.90
8684;DHT22;4379;59.744;18.206;2023-02-01T15:14:34;-0.20;99.90
8684;DHT22;4379;59.744;18.206;2023-02-01T15:17:15;-0.10;99.90
8684;DHT22;4379;59.744;18.206;2023-02-01T15:19:57;-0.10;99.90
8684;DHT22;4379;59.744;18.206;2023-02-01T15:22:27;-0.30;99.90
8684;DHT22;4379;59.744;18.206;2023-02-01T15:24:57;-0.30;99.90
8684;DHT22;4379;59.744;18.206;2023-02-01T15:27:28;-0.30;99.90
8684;DHT22;4379;59.744;18.206;2023-02-01T15:30:08;-0.30;99.90
8684;DHT22;4379;59.744;18.206;2023-02-01T15:32:38;-0.50;99.90
8684;DHT22;4379;59.744;18.206;2023-02-01T15:35:39;-0.40;99.90
8684;DHT22;4379;59.744;18.206;2023-02-01T15:38:30;-0.30;99.90
8684;DHT22;4379;59.744;18.206;2023-02-01T15:41:07;-0.30;99.90
8684;DHT22;4379;59.744;18.206;2023-02-01T15:46:39;-0.50;99.90
8684;DHT22;4379;59.744;18.206;2023-02-01T15:49:19;-0.70;99.90
8684;DHT22;4379;59.744;18.206;2023-02-01T15:51:47;-0.80;99.90
8684;DHT22;4379;59.744;18.206;2023-02-01T15:54:52;-0.80;99.90
8684;DHT22;4379;59.744;18.206;2023-02-01T15:57:23;-0.80;99.90
8684;DHT22;4379;59.744;18.206;2023-02-01T15:59:59;-0.70;99.90
8684;DHT22;4379;59.744;18.206;2023-02-01T16:02:34;-0.60;99.90
8684;DHT22;4379;59.744;18.206;2023-02-01T16:05:03;-0.60;99.90
8684;DHT22;4379;59.744;18.206;2023-02-01T16:07:32;-0.70;99.90
8684;DHT22;4379;59.744;18.206;2023-02-01T16:10:02;-0.70;99.90
8684;DHT22;4379;59.744;18.206;2023-02-01T16:12:47;-0.80;99.90
8684;DHT22;4379;59.744;18.206;2023-02-01T16:15:19;-0.80;99.90
8684;DHT22;4379;59.744;18.206;2023-02-01T16:17:57;-0.80;99.90
8684;DHT22;4379;59.744;18.206;2023-02-01T16:20:25;-0.90;99.90
8684;DHT22;4379;59.744;18.206;2023-02-01T16:22:52;-0.80;99.90
8684;DHT22;4379;59.744;18.206;2023-02-01T16:25:20;-0.90;99.90
8684;DHT22;4379;59.744;18.206;2023-02-01T16:27:48;-0.90;99.90
8684;DHT22;4379;59.744;18.206;2023-02-01T16:30:16;-0.80;99.90
8684;DHT22;4379;59.744;18.206;2023-02-01T16:32:57;-0.80;99.90
8684;DHT22;4379;59.744;18.206;2023-02-01T16:35:28;-0.70;99.90
8684;DHT22;4379;59.744;18.206;2023-02-01T16:37:58;-0.90;99.90
8684;DHT22;4379;59.744;18.206;2023-02-01T16:40:25;-1.10;99.90
8684;DHT22;4379;59.744;18.206;2023-02-01T16:42:53;-1.20;99.90
8684;DHT22;4379;59.744;18.206;2023-02-01T16:45:25;-1.10;99.90
8684;DHT22;4379;59.744;18.206;2023-02-01T16:47:55;-1.00;99.90
8684;DHT22;4379;59.744;18.206;2023-02-01T16:50:25;-1.10;99.90
8684;DHT22;4379;59.744;18.206;2023-02-01T16:52:54;-1.20;99.90
8684;DHT22;4379;59.744;18.206;2023-02-01T16:55:22;-1.30;99.90
8684;DHT22;4379;59.744;18.206;2023-02-01T16:57:50;-1.40;99.90
8684;DHT22;4379;59.744;18.206;2023-02-01T17:00:18;-1.30;99.90
8684;DHT22;4379;59.744;18.206;2023-02-01T17:02:52;-1.20;99.90
8684;DHT22;4379;59.744;18.206;2023-02-01T17:05:20;-1.20;99.90
8684;DHT22;4379;59.744;18.206;2023-02-01T17:07:49;-1.30;99.90
8684;DHT22;4379;59.744;18.206;2023-02-01T17:10:26;-1.30;99.90
8684;DHT22;4379;59.744;18.206;2023-02-01T17:13:01;-1.40;99.90
8684;DHT22;4379;59.744;18.206;2023-02-01T17:15:32;-1.50;99.90
8684;DHT22;4379;59.744;18.206;2023-02-01T17:18:02;-1.60;99.90
8684;DHT22;4379;59.744;18.206;2023-02-01T17:20:31;-1.70;99.90
8684;DHT22;4379;59.744;18.206;2023-02-01T17:22:59;-1.70;99.90
8684;DHT22;4379;59.744;18.206;2023-02-01T17:25:27;-1.60;99.90
8684;DHT22;4379;59.744;18.206;2023-02-01T17:27:56;-1.70;99.90
8684;DHT22;4379;59.744;18.206;2023-02-01T17:30:24;-1.60;99.90
8684;DHT22;4379;59.744;18.206;2023-02-01T17:32:54;-1.50;99.90
8684;DHT22;4379;59.744;18.206;2023-02-01T17:35:30;-1.50;99.90
8684;DHT22;4379;59.744;18.206;2023-02-01T17:37:58;-1.60;99.90
8684;DHT22;4379;59.744;18.206;2023-02-01T17:40:26;-1.60;99.90
8684;DHT22;4379;59.744;18.206;2023-02-01T17:42:55;-1.60;99.90
8684;DHT22;4379;59.744;18.206;2023-02-01T17:45:48;-1.60;99.90
8684;DHT22;4379;59.744;18.206;2023-02-01T17:48:20;-1.50;99.90
8684;DHT22;4379;59.744;18.206;2023-02-01T17:50:51;-1.60;99.90
8684;DHT22;4379;59.744;18.206;2023-02-01T17:53:28;-1.60;99.90
8684;DHT22;4379;59.744;18.206;2023-02-01T17:55:56;-1.50;99.90
8684;DHT22;4379;59.744;18.206;2023-02-01T17:58:25;-1.50;99.90
8684;DHT22;4379;59.744;18.206;2023-02-01T18:00:53;-1.60;99.90
8684;DHT22;4379;59.744;18.206;2023-02-01T18:03:26;-1.40;99.90
8684;DHT22;4379;59.744;18.206;2023-02-01T18:05:56;-1.30;99.90
8684;DHT22;4379;59.744;18.206;2023-02-01T18:08:27;-1.30;99.90
8684;DHT22;4379;59.744;18.206;2023-02-01T18:10:57;-1.30;99.90
8684;DHT22;4379;59.744;18.206;2023-02-01T18:13:29;-1.30;99.90
8684;DHT22;4379;59.744;18.206;2023-02-01T18:15:57;-1.40;99.90
8684;DHT22;4379;59.744;18.206;2023-02-01T18:18:26;-1.50;99.90
8684;DHT22;4379;59.744;18.206;2023-02-01T18:20:55;-1.50;99.90
8684;DHT22;4379;59.744;18.206;2023-02-01T18:23:23;-1.50;99.90
8684;DHT22;4379;59.744;18.206;2023-02-01T18:25:51;-1.50;99.90
8684;DHT22;4379;59.744;18.206;2023-02-01T18:28:19;-1.50;99.90
8684;DHT22;4379;59.744;18.206;2023-02-01T18:30:48;-1.60;99.90
8684;DHT22;4379;59.744;18.206;2023-02-01T18:33:19;-1.60;99.90
8684;DHT22;4379;59.744;18.206;2023-02-01T18:35:48;-1.50;99.90
8684;DHT22;4379;59.744;18.206;2023-02-01T18:38:16;-1.40;99.90
8684;DHT22;4379;59.744;18.206;2023-02-01T18:40:52;-1.50;99.90
8684;DHT22;4379;59.744;18.206;2023-02-01T18:43:21;-1.30;99.90
8684;DHT22;4379;59.744;18.206;2023-02-01T18:45:48;-1.30;99.90
8684;DHT22;4379;59.744;18.206;2023-02-01T18:48:17;-1.30;99.90
8684;DHT22;4379;59.744;18.206;2023-02-01T18:50:49;-1.50;99.90
8684;DHT22;4379;59.744;18.206;2023-02-01T18:53:28;-1.50;99.90
8684;DHT22;4379;59.744;18.206;2023-02-01T18:55:58;-1.50;99.90
8684;DHT22;4379;59.744;18.206;2023-02-01T18:58:26;-1.30;99.90
8684;DHT22;4379;59.744;18.206;2023-02-01T19:00:55;-1.20;99.90
8684;DHT22;4379;59.744;18.206;2023-02-01T19:03:25;-1.10;99.90